sensor_id;sensor_type;location;lat;lon;timestamp;P1;durP1;ratioP1;P2;durP2;ratioP2
27367;SDS011;14839;48.106;11.618;2022-07-12T04:01:31;3.73;;;1.90;;
27367;SDS011;14839;48.106;11.618;2022-07-12T04:03:57;2.90;;;1.87;;
27367;SDS011;14839;48.106;11.618;2022-07-12T04:06:23;2.60;;;2.00;;
27367;SDS011;14839;48.106;11.618;2022-07-12T04:08:49;2.43;;;1.57;;
27367;SDS011;14839;48.106;11.618;2022-07-12T04:11:14;2.43;;;1.70;;
27367;SDS011;14839;48.106;11.618;2022-07-12T04:13:40;2.17;;;1.60;;
27367;SDS011;14839;48.106;11.618;2022-07-12T04:16:06;2.27;;;1.73;;
27367;SDS011;14839;48.106;11.618;2022-07-12T04:18:32;3.40;;;1.70;;
27367;SDS011;14839;48.106;11.618;2022-07-12T04:20:57;2.73;;;1.63;;
27367;SDS011;14839;48.106;11.618;2022-07-12T04:23:23;2.30;;;1.63;;
27367;SDS011;14839;48.106;11.618;2022-07-12T04:25:49;2.07;;;1.80;;
27367;SDS011;14839;48.106;11.618;2022-07-12T04:28:15;2.43;;;2.00;;
27367;SDS011;14839;48.106;11.618;2022-07-12T04:30:41;3.17;;;2.03;;
27367;SDS011;14839;48.106;11.618;2022-07-12T04:33:08;1.90;;;1.67;;
27367;SDS011;14839;48.106;11.618;2022-07-12T04:35:34;1.70;;;1.60;;
27367;SDS011;14839;48.106;11.618;2022-07-12T04:37:59;3.80;;;2.10;;
27367;SDS011;14839;48.106;11.618;2022-07-12T04:40:25;2.33;;;1.80;;
27367;SDS011;14839;48.106;11.618;2022-07-12T04:42:50;4.00;;;1.87;;
27367;SDS011;14839;48.106;11.618;2022-07-12T04:45:16;2.70;;;1.83;;
27367;SDS011;14839;48.106;11.618;2022-07-12T04:47:42;6.60;;;2.10;;
27367;SDS011;14839;48.106;11.618;2022-07-12T04:50:07;1.97;;;1.67;;
27367;SDS011;14839;48.106;11.618;2022-07-12T04:52:34;3.30;;;1.70;;
27367;SDS011;14839;48.106;11.618;2022-07-12T04:55:00;1.90;;;1.70;;
27367;SDS011;14839;48.106;11.618;2022-07-12T04:57:26;2.90;;;1.50;;
27367;SDS011;14839;48.106;11.618;2022-07-12T04:59:51;3.97;;;1.70;;
27367;SDS011;14839;48.106;11.618;2022-07-12T05:02:17;2.10;;;1.67;;
27367;SDS011;14839;48.106;11.618;2022-07-12T05:04:43;2.78;;;1.60;;
27367;SDS011;14839;48.106;11.618;2022-07-12T05:07:11;2.17;;;1.50;;
27367;SDS011;14839;48.106;11.618;2022-07-12T05:09:37;2.20;;;1.70;;
27367;SDS011;14839;48.106;11.618;2022-07-12T05:12:02;1.77;;;1.33;;
27367;SDS011;14839;48.106;11.618;2022-07-12T05:14:28;3.03;;;1.90;;
27367;SDS011;14839;48.106;11.618;2022-07-12T05:16:54;3.10;;;1.90;;
27367;SDS011;14839;48.106;11.618;2022-07-12T05:19:20;3.03;;;1.92;;
27367;SDS011;14839;48.106;11.618;2022-07-12T05:21:46;2.20;;;1.52;;
27367;SDS011;14839;48.106;11.618;2022-07-12T05:24:11;1.80;;;1.60;;
27367;SDS011;14839;48.106;11.618;2022-07-12T05:26:37;2.95;;;1.80;;
27367;SDS011;14839;48.106;11.618;2022-07-12T05:29:02;2.90;;;2.03;;
27367;SDS011;14839;48.106;11.618;2022-07-12T05:31:28;2.15;;;1.90;;
27367;SDS011;14839;48.106;11.618;2022-07-12T05:33:54;2.13;;;1.80;;
27367;SDS011;14839;48.106;11.618;2022-07-12T05:36:19;2.33;;;1.90;;
27367;SDS011;14839;48.106;11.618;2022-07-12T05:38:45;1.92;;;1.80;;
27367;SDS011;14839;48.106;11.618;2022-07-12T05:41:11;2.67;;;2.08;;
27367;SDS011;14839;48.106;11.618;2022-07-12T05:43:37;2.00;;;1.90;;
27367;SDS011;14839;48.106;11.618;2022-07-12T05:46:03;2.00;;;1.90;;
27367;SDS011;14839;48.106;11.618;2022-07-12T05:48:29;3.28;;;2.53;;
27367;SDS011;14839;48.106;11.618;2022-07-12T05:50:55;2.10;;;1.90;;
27367;SDS011;14839;48.106;11.618;2022-07-12T05:53:20;2.08;;;1.88;;
27367;SDS011;14839;48.106;11.618;2022-07-12T05:55:52;1.88;;;1.55;;
27367;SDS011;14839;48.106;11.618;2022-07-12T05:58:19;1.80;;;1.42;;
27367;SDS011;14839;48.106;11.618;2022-07-12T06:00:46;1.70;;;1.60;;
27367;SDS011;14839;48.106;11.618;2022-07-12T06:03:12;1.85;;;1.70;;
27367;SDS011;14839;48.106;11.618;2022-07-12T06:05:38;1.70;;;1.30;;
27367;SDS011;14839;48.106;11.618;2022-07-12T06:08:04;1.98;;;1.27;;
27367;SDS011;14839;48.106;11.618;2022-07-12T06:10:30;1.77;;;1.10;;
27367;SDS011;14839;48.106;11.618;2022-07-12T06:12:55;1.52;;;1.30;;
27367;SDS011;14839;48.106;11.618;2022-07-12T06:15:21;1.88;;;1.73;;
27367;SDS011;14839;48.106;11.618;2022-07-12T06:17:47;1.48;;;1.27;;
27367;SDS011;14839;48.106;11.618;2022-07-12T06:20:13;2.42;;;2.00;;
27367;SDS011;14839;48.106;11.618;2022-07-12T06:22:39;4.20;;;1.92;;
27367;SDS011;14839;48.106;11.618;2022-07-12T06:25:04;1.73;;;1.55;;
27367;SDS011;14839;48.106;11.618;2022-07-12T06:27:31;2.05;;;1.75;;
27367;SDS011;14839;48.106;11.618;2022-07-12T06:29:57;2.00;;;1.80;;
27367;SDS011;14839;48.106;11.618;2022-07-12T06:32:22;2.90;;;2.13;;
27367;SDS011;14839;48.106;11.618;2022-07-12T06:34:48;2.25;;;1.85;;
27367;SDS011;14839;48.106;11.618;2022-07-12T06:37:13;3.03;;;2.20;;
27367;SDS011;14839;48.106;11.618;2022-07-12T06:39:39;3.08;;;2.00;;
27367;SDS011;14839;48.106;11.618;2022-07-12T06:42:05;2.53;;;2.33;;
27367;SDS011;14839;48.106;11.618;2022-07-12T06:44:32;2.85;;;2.63;;
27367;SDS011;14839;48.106;11.618;2022-07-12T06:46:58;2.35;;;2.10;;
27367;SDS011;14839;48.106;11.618;2022-07-12T06:49:24;2.00;;;1.85;;
27367;SDS011;14839;48.106;11.618;2022-07-12T06:51:50;2.50;;;2.00;;
27367;SDS011;14839;48.106;11.618;2022-07-12T06:54:16;1.70;;;1.60;;
27367;SDS011;14839;48.106;11.618;2022-07-12T06:56:42;2.83;;;1.55;;
27367;SDS011;14839;48.106;11.618;2022-07-12T06:59:07;2.50;;;1.95;;
27367;SDS011;14839;48.106;11.618;2022-07-12T07:01:36;1.98;;;1.80;;
27367;SDS011;14839;48.106;11.618;2022-07-12T07:04:01;1.80;;;1.70;;
27367;SDS011;14839;48.106;11.618;2022-07-12T07:06:27;2.13;;;1.90;;
27367;SDS011;14839;48.106;11.618;2022-07-12T07:08:53;2.08;;;1.70;;
27367;SDS011;14839;48.106;11.618;2022-07-12T07:11:19;1.85;;;1.75;;
27367;SDS011;14839;48.106;11.618;2022-07-12T07:13:44;1.95;;;1.40;;
27367;SDS011;14839;48.106;11.618;2022-07-12T07:16:10;2.35;;;1.65;;
27367;SDS011;14839;48.106;11.618;2022-07-12T07:18:35;2.78;;;1.95;;
27367;SDS011;14839;48.106;11.618;2022-07-12T07:21:01;1.42;;;1.33;;
27367;SDS011;14839;48.106;11.618;2022-07-12T07:23:27;1.90;;;1.65;;
27367;SDS011;14839;48.106;11.618;2022-07-12T07:25:52;1.60;;;1.25;;
27367;SDS011;14839;48.106;11.618;2022-07-12T07:28:18;1.10;;;1.00;;
27367;SDS011;14839;48.106;11.618;2022-07-12T07:30:44;1.25;;;1.15;;
27367;SDS011;14839;48.106;11.618;2022-07-12T07:33:19;1.15;;;1.05;;
27367;SDS011;14839;48.106;11.618;2022-07-12T07:35:48;2.30;;;1.30;;
27367;SDS011;14839;48.106;11.618;2022-07-12T07:38:15;1.92;;;1.23;;
27367;SDS011;14839;48.106;11.618;2022-07-12T07:40:41;1.23;;;1.13;;
27367;SDS011;14839;48.106;11.618;2022-07-12T07:43:07;1.77;;;1.10;;
27367;SDS011;14839;48.106;11.618;2022-07-12T07:45:33;1.45;;;1.02;;
27367;SDS011;14839;48.106;11.618;2022-07-12T07:47:58;1.88;;;1.00;;
27367;SDS011;14839;48.106;11.618;2022-07-12T07:50:24;1.25;;;1.10;;
27367;SDS011;14839;48.106;11.618;2022-07-12T07:52:49;1.38;;;0.80;;
27367;SDS011;14839;48.106;11.618;2022-07-12T07:55:16;1.00;;;0.88;;
27367;SDS011;14839;48.106;11.618;2022-07-12T07:57:42;1.08;;;0.80;;
27367;SDS011;14839;48.106;11.618;2022-07-12T08:00:07;0.80;;;0.80;;
27367;SDS011;14839;48.106;11.618;2022-07-12T08:02:33;0.98;;;0.80;;
27367;SDS011;14839;48.106;11.618;2022-07-12T08:04:59;1.83;;;0.82;;
27367;SDS011;14839;48.106;11.618;2022-07-12T08:07:25;0.88;;;0.77;;
27367;SDS011;14839;48.106;11.618;2022-07-12T08:09:51;0.90;;;0.90;;
27367;SDS011;14839;48.106;11.618;2022-07-12T08:12:16;0.85;;;0.85;;
27367;SDS011;14839;48.106;11.618;2022-07-12T08:14:42;1.00;;;0.90;;
27367;SDS011;14839;48.106;11.618;2022-07-12T08:17:07;1.20;;;0.70;;
27367;SDS011;14839;48.106;11.618;2022-07-12T08:19:33;0.88;;;0.88;;
27367;SDS011;14839;48.106;11.618;2022-07-12T08:21:58;0.70;;;0.70;;
27367;SDS011;14839;48.106;11.618;2022-07-12T08:24:24;1.00;;;0.90;;
27367;SDS011;14839;48.106;11.618;2022-07-12T08:26:50;0.90;;;0.90;;
27367;SDS011;14839;48.106;11.618;2022-07-12T08:29:15;1.15;;;0.80;;
27367;SDS011;14839;48.106;11.618;2022-07-12T08:31:41;0.70;;;0.70;;
27367;SDS011;14839;48.106;11.618;2022-07-12T08:34:06;0.73;;;0.60;;
27367;SDS011;14839;48.106;11.618;2022-07-12T08:36:32;0.73;;;0.73;;
27367;SDS011;14839;48.106;11.618;2022-07-12T08:38:57;0.80;;;0.80;;
27367;SDS011;14839;48.106;11.618;2022-07-12T08:41:23;0.88;;;0.73;;
27367;SDS011;14839;48.106;11.618;2022-07-12T08:43:48;0.68;;;0.50;;
27367;SDS011;14839;48.106;11.618;2022-07-12T08:46:14;2.28;;;0.68;;
27367;SDS011;14839;48.106;11.618;2022-07-12T08:48:40;0.95;;;0.80;;
27367;SDS011;14839;48.106;11.618;2022-07-12T08:51:11;1.13;;;0.75;;
27367;SDS011;14839;48.106;11.618;2022-07-12T08:53:38;0.63;;;0.60;;
27367;SDS011;14839;48.106;11.618;2022-07-12T08:56:08;1.13;;;0.85;;
27367;SDS011;14839;48.106;11.618;2022-07-12T09:01:49;1.13;;;0.82;;
27367;SDS011;14839;48.106;11.618;2022-07-12T09:04:17;2.17;;;0.60;;
27367;SDS011;14839;48.106;11.618;2022-07-12T09:06:45;0.98;;;0.70;;
27367;SDS011;14839;48.106;11.618;2022-07-12T09:09:12;2.78;;;0.80;;
27367;SDS011;14839;48.106;11.618;2022-07-12T09:11:54;1.58;;;0.70;;
27367;SDS011;14839;48.106;11.618;2022-07-12T09:14:20;1.05;;;0.95;;
27367;SDS011;14839;48.106;11.618;2022-07-12T09:17:02;0.70;;;0.70;;
27367;SDS011;14839;48.106;11.618;2022-07-12T09:19:34;0.80;;;0.70;;
27367;SDS011;14839;48.106;11.618;2022-07-12T09:21:59;0.60;;;0.60;;
27367;SDS011;14839;48.106;11.618;2022-07-12T09:24:25;1.23;;;0.70;;
27367;SDS011;14839;48.106;11.618;2022-07-12T09:26:53;0.82;;;0.70;;
27367;SDS011;14839;48.106;11.618;2022-07-12T09:29:24;1.35;;;0.90;;
27367;SDS011;14839;48.106;11.618;2022-07-12T09:31:50;1.63;;;0.75;;
27367;SDS011;14839;48.106;11.618;2022-07-12T09:34:35;1.50;;;0.90;;
27367;SDS011;14839;48.106;11.618;2022-07-12T09:37:20;1.13;;;0.70;;
27367;SDS011;14839;48.106;11.618;2022-07-12T09:39:46;1.30;;;0.70;;
27367;SDS011;14839;48.106;11.618;2022-07-12T09:42:13;0.77;;;0.77;;
27367;SDS011;14839;48.106;11.618;2022-07-12T09:44:39;0.95;;;0.82;;
27367;SDS011;14839;48.106;11.618;2022-07-12T09:47:06;0.60;;;0.52;;
27367;SDS011;14839;48.106;11.618;2022-07-12T09:49:38;0.82;;;0.70;;
27367;SDS011;14839;48.106;11.618;2022-07-12T09:52:13;0.70;;;0.70;;
27367;SDS011;14839;48.106;11.618;2022-07-12T09:54:44;0.80;;;0.80;;
27367;SDS011;14839;48.106;11.618;2022-07-12T09:57:30;0.60;;;0.60;;
27367;SDS011;14839;48.106;11.618;2022-07-12T09:59:56;2.15;;;0.85;;
27367;SDS011;14839;48.106;11.618;2022-07-12T10:02:23;1.25;;;0.68;;
27367;SDS011;14839;48.106;11.618;2022-07-12T10:04:50;0.60;;;0.60;;
27367;SDS011;14839;48.106;11.618;2022-07-12T10:07:16;1.58;;;0.60;;
27367;SDS011;14839;48.106;11.618;2022-07-12T10:09:42;0.98;;;0.68;;
27367;SDS011;14839;48.106;11.618;2022-07-12T10:12:10;0.77;;;0.70;;
27367;SDS011;14839;48.106;11.618;2022-07-12T10:14:39;0.95;;;0.70;;
27367;SDS011;14839;48.106;11.618;2022-07-12T10:17:06;1.05;;;0.57;;
27367;SDS011;14839;48.106;11.618;2022-07-12T10:19:36;0.85;;;0.63;;
27367;SDS011;14839;48.106;11.618;2022-07-12T10:22:03;0.70;;;0.52;;
27367;SDS011;14839;48.106;11.618;2022-07-12T10:29:41;1.75;;;0.80;;
27367;SDS011;14839;48.106;11.618;2022-07-12T10:32:20;0.60;;;0.60;;
27367;SDS011;14839;48.106;11.618;2022-07-12T10:35:04;0.50;;;0.50;;
27367;SDS011;14839;48.106;11.618;2022-07-12T10:37:31;0.50;;;0.50;;
27367;SDS011;14839;48.106;11.618;2022-07-12T10:42:40;3.60;;;0.95;;
27367;SDS011;14839;48.106;11.618;2022-07-12T10:45:29;0.70;;;0.60;;
27367;SDS011;14839;48.106;11.618;2022-07-12T10:47:56;0.68;;;0.60;;
27367;SDS011;14839;48.106;11.618;2022-07-12T10:58:29;0.57;;;0.50;;
27367;SDS011;14839;48.106;11.618;2022-07-12T11:01:04;0.90;;;0.50;;
27367;SDS011;14839;48.106;11.618;2022-07-12T11:06:12;0.60;;;0.60;;
27367;SDS011;14839;48.106;11.618;2022-07-12T11:08:49;0.70;;;0.70;;
27367;SDS011;14839;48.106;11.618;2022-07-12T11:11:18;0.93;;;0.75;;
27367;SDS011;14839;48.106;11.618;2022-07-12T11:13:44;0.82;;;0.82;;
27367;SDS011;14839;48.106;11.618;2022-07-12T11:16:10;1.58;;;0.80;;
27367;SDS011;14839;48.106;11.618;2022-07-12T11:18:36;0.63;;;0.60;;
27367;SDS011;14839;48.106;11.618;2022-07-12T11:21:03;0.70;;;0.60;;
27367;SDS011;14839;48.106;11.618;2022-07-12T11:23:29;3.50;;;0.75;;
27367;SDS011;14839;48.106;11.618;2022-07-12T11:25:56;2.70;;;0.60;;
27367;SDS011;14839;48.106;11.618;2022-07-12T11:28:32;0.90;;;0.50;;
27367;SDS011;14839;48.106;11.618;2022-07-12T11:31:08;0.55;;;0.55;;
27367;SDS011;14839;48.106;11.618;2022-07-12T11:33:39;0.45;;;0.40;;
27367;SDS011;14839;48.106;11.618;2022-07-12T11:36:07;0.55;;;0.52;;
27367;SDS011;14839;48.106;11.618;2022-07-12T11:38:34;0.75;;;0.60;;
27367;SDS011;14839;48.106;11.618;2022-07-12T11:41:03;2.95;;;0.50;;
27367;SDS011;14839;48.106;11.618;2022-07-12T11:43:30;1.00;;;0.50;;
27367;SDS011;14839;48.106;11.618;2022-07-12T11:45:56;0.82;;;0.70;;
27367;SDS011;14839;48.106;11.618;2022-07-12T11:48:22;0.60;;;0.50;;
27367;SDS011;14839;48.106;11.618;2022-07-12T11:50:52;0.50;;;0.50;;
27367;SDS011;14839;48.106;11.618;2022-07-12T11:53:25;0.60;;;0.60;;
27367;SDS011;14839;48.106;11.618;2022-07-12T11:55:52;0.50;;;0.50;;
27367;SDS011;14839;48.106;11.618;2022-07-12T11:58:23;0.47;;;0.47;;
27367;SDS011;14839;48.106;11.618;2022-07-12T12:00:50;0.65;;;0.47;;
27367;SDS011;14839;48.106;11.618;2022-07-12T12:03:17;0.80;;;0.60;;
27367;SDS011;14839;48.106;11.618;2022-07-12T12:05:45;0.50;;;0.47;;
27367;SDS011;14839;48.106;11.618;2022-07-12T12:08:12;0.60;;;0.60;;
27367;SDS011;14839;48.106;11.618;2022-07-12T12:10:40;0.73;;;0.45;;
27367;SDS011;14839;48.106;11.618;2022-07-12T12:13:12;0.55;;;0.40;;
27367;SDS011;14839;48.106;11.618;2022-07-12T12:15:48;0.82;;;0.60;;
27367;SDS011;14839;48.106;11.618;2022-07-12T12:18:16;1.10;;;0.50;;
27367;SDS011;14839;48.106;11.618;2022-07-12T12:20:42;3.22;;;0.50;;
27367;SDS011;14839;48.106;11.618;2022-07-12T12:23:19;0.40;;;0.40;;
27367;SDS011;14839;48.106;11.618;2022-07-12T12:25:45;1.33;;;0.55;;
27367;SDS011;14839;48.106;11.618;2022-07-12T12:28:11;0.40;;;0.38;;
27367;SDS011;14839;48.106;11.618;2022-07-12T12:30:53;0.43;;;0.43;;
27367;SDS011;14839;48.106;11.618;2022-07-12T12:33:32;0.30;;;0.30;;
27367;SDS011;14839;48.106;11.618;2022-07-12T12:36:10;0.50;;;0.50;;
27367;SDS011;14839;48.106;11.618;2022-07-12T12:38:46;1.58;;;0.60;;
27367;SDS011;14839;48.106;11.618;2022-07-12T12:41:14;0.77;;;0.50;;
27367;SDS011;14839;48.106;11.618;2022-07-12T12:43:42;0.60;;;0.40;;
27367;SDS011;14839;48.106;11.618;2022-07-12T12:46:08;0.30;;;0.30;;
27367;SDS011;14839;48.106;11.618;2022-07-12T12:48:34;0.68;;;0.40;;
27367;SDS011;14839;48.106;11.618;2022-07-12T12:51:05;0.40;;;0.40;;
27367;SDS011;14839;48.106;11.618;2022-07-12T12:53:36;1.17;;;0.30;;
27367;SDS011;14839;48.106;11.618;2022-07-12T12:56:08;0.75;;;0.50;;
27367;SDS011;14839;48.106;11.618;2022-07-12T12:58:35;0.40;;;0.40;;
27367;SDS011;14839;48.106;11.618;2022-07-12T13:01:01;0.50;;;0.40;;
27367;SDS011;14839;48.106;11.618;2022-07-12T13:03:27;0.40;;;0.40;;
27367;SDS011;14839;48.106;11.618;2022-07-12T13:05:53;0.55;;;0.47;;
27367;SDS011;14839;48.106;11.618;2022-07-12T13:08:19;1.20;;;0.60;;
27367;SDS011;14839;48.106;11.618;2022-07-12T13:10:45;0.98;;;0.47;;
27367;SDS011;14839;48.106;11.618;2022-07-12T13:13:12;0.50;;;0.43;;
27367;SDS011;14839;48.106;11.618;2022-07-12T13:15:38;0.30;;;0.30;;
27367;SDS011;14839;48.106;11.618;2022-07-12T13:18:04;1.33;;;0.60;;
27367;SDS011;14839;48.106;11.618;2022-07-12T13:20:31;0.60;;;0.50;;
27367;SDS011;14839;48.106;11.618;2022-07-12T13:22:57;0.50;;;0.50;;
27367;SDS011;14839;48.106;11.618;2022-07-12T13:25:23;0.35;;;0.32;;
27367;SDS011;14839;48.106;11.618;2022-07-12T13:27:50;0.57;;;0.40;;
27367;SDS011;14839;48.106;11.618;2022-07-12T13:30:17;0.88;;;0.50;;
27367;SDS011;14839;48.106;11.618;2022-07-12T13:32:43;1.15;;;0.60;;
27367;SDS011;14839;48.106;11.618;2022-07-12T13:35:09;0.55;;;0.43;;
27367;SDS011;14839;48.106;11.618;2022-07-12T13:37:40;0.40;;;0.40;;
27367;SDS011;14839;48.106;11.618;2022-07-12T13:40:07;0.65;;;0.43;;
27367;SDS011;14839;48.106;11.618;2022-07-12T13:42:45;1.00;;;0.43;;
27367;SDS011;14839;48.106;11.618;2022-07-12T13:45:23;0.20;;;0.20;;
27367;SDS011;14839;48.106;11.618;2022-07-12T13:47:49;1.13;;;0.40;;
27367;SDS011;14839;48.106;11.618;2022-07-12T13:50:17;0.52;;;0.52;;
27367;SDS011;14839;48.106;11.618;2022-07-12T13:52:44;3.67;;;0.40;;
27367;SDS011;14839;48.106;11.618;2022-07-12T13:55:12;0.93;;;0.40;;
27367;SDS011;14839;48.106;11.618;2022-07-12T13:57:39;0.63;;;0.50;;
27367;SDS011;14839;48.106;11.618;2022-07-12T14:00:05;1.25;;;0.40;;
27367;SDS011;14839;48.106;11.618;2022-07-12T14:02:40;0.65;;;0.50;;
27367;SDS011;14839;48.106;11.618;2022-07-12T14:05:08;0.52;;;0.50;;
27367;SDS011;14839;48.106;11.618;2022-07-12T14:07:35;1.95;;;0.30;;
27367;SDS011;14839;48.106;11.618;2022-07-12T14:10:02;0.40;;;0.40;;
27367;SDS011;14839;48.106;11.618;2022-07-12T14:12:28;4.10;;;0.40;;
27367;SDS011;14839;48.106;11.618;2022-07-12T14:14:54;0.30;;;0.30;;
27367;SDS011;14839;48.106;11.618;2022-07-12T14:17:34;0.52;;;0.32;;
27367;SDS011;14839;48.106;11.618;2022-07-12T14:20:00;0.50;;;0.40;;
27367;SDS011;14839;48.106;11.618;2022-07-12T14:22:27;0.35;;;0.30;;
27367;SDS011;14839;48.106;11.618;2022-07-12T14:24:53;0.82;;;0.50;;
27367;SDS011;14839;48.106;11.618;2022-07-12T14:27:18;0.55;;;0.40;;
27367;SDS011;14839;48.106;11.618;2022-07-12T14:29:44;0.38;;;0.38;;
27367;SDS011;14839;48.106;11.618;2022-07-12T14:32:09;0.40;;;0.30;;
27367;SDS011;14839;48.106;11.618;2022-07-12T14:34:35;0.40;;;0.40;;
27367;SDS011;14839;48.106;11.618;2022-07-12T14:37:01;0.40;;;0.40;;
27367;SDS011;14839;48.106;11.618;2022-07-12T14:39:27;0.50;;;0.50;;
27367;SDS011;14839;48.106;11.618;2022-07-12T14:41:53;1.02;;;0.50;;
27367;SDS011;14839;48.106;11.618;2022-07-12T14:44:18;0.50;;;0.43;;
27367;SDS011;14839;48.106;11.618;2022-07-12T14:46:44;2.58;;;0.60;;
27367;SDS011;14839;48.106;11.618;2022-07-12T14:49:10;0.57;;;0.50;;
27367;SDS011;14839;48.106;11.618;2022-07-12T14:51:38;0.85;;;0.73;;
27367;SDS011;14839;48.106;11.618;2022-07-12T14:54:04;0.52;;;0.50;;
27367;SDS011;14839;48.106;11.618;2022-07-12T14:56:29;0.82;;;0.60;;
27367;SDS011;14839;48.106;11.618;2022-07-12T14:58:55;0.30;;;0.30;;
27367;SDS011;14839;48.106;11.618;2022-07-12T15:01:21;0.55;;;0.50;;
27367;SDS011;14839;48.106;11.618;2022-07-12T15:03:46;1.27;;;0.45;;
27367;SDS011;14839;48.106;11.618;2022-07-12T15:06:12;0.50;;;0.50;;
27367;SDS011;14839;48.106;11.618;2022-07-12T15:08:37;0.57;;;0.57;;
27367;SDS011;14839;48.106;11.618;2022-07-12T15:11:03;1.35;;;1.05;;
27367;SDS011;14839;48.106;11.618;2022-07-12T15:13:29;2.47;;;0.60;;
27367;SDS011;14839;48.106;11.618;2022-07-12T15:15:55;0.75;;;0.65;;
27367;SDS011;14839;48.106;11.618;2022-07-12T15:18:21;0.40;;;0.40;;
27367;SDS011;14839;48.106;11.618;2022-07-12T15:20:48;0.65;;;0.60;;
27367;SDS011;14839;48.106;11.618;2022-07-12T15:23:14;1.10;;;0.70;;
27367;SDS011;14839;48.106;11.618;2022-07-12T15:25:40;3.13;;;0.40;;
27367;SDS011;14839;48.106;11.618;2022-07-12T15:28:06;1.05;;;0.50;;
27367;SDS011;14839;48.106;11.618;2022-07-12T15:30:31;0.82;;;0.40;;
27367;SDS011;14839;48.106;11.618;2022-07-12T15:32:57;0.50;;;0.40;;
27367;SDS011;14839;48.106;11.618;2022-07-12T15:35:23;0.50;;;0.50;;
27367;SDS011;14839;48.106;11.618;2022-07-12T15:37:49;0.65;;;0.50;;
27367;SDS011;14839;48.106;11.618;2022-07-12T15:40:15;4.50;;;0.60;;
27367;SDS011;14839;48.106;11.618;2022-07-12T15:42:41;1.20;;;0.50;;
27367;SDS011;14839;48.106;11.618;2022-07-12T15:45:07;0.47;;;0.47;;
27367;SDS011;14839;48.106;11.618;2022-07-12T15:47:33;0.65;;;0.50;;
27367;SDS011;14839;48.106;11.618;2022-07-12T15:49:59;0.60;;;0.50;;
27367;SDS011;14839;48.106;11.618;2022-07-12T15:52:25;1.08;;;0.55;;
27367;SDS011;14839;48.106;11.618;2022-07-12T15:55:09;0.80;;;0.38;;
27367;SDS011;14839;48.106;11.618;2022-07-12T15:57:35;0.40;;;0.40;;
27367;SDS011;14839;48.106;11.618;2022-07-12T16:00:01;0.57;;;0.45;;
27367;SDS011;14839;48.106;11.618;2022-07-12T16:02:28;1.95;;;0.40;;
27367;SDS011;14839;48.106;11.618;2022-07-12T16:04:55;0.40;;;0.40;;
27367;SDS011;14839;48.106;11.618;2022-07-12T16:07:21;1.15;;;0.40;;
27367;SDS011;14839;48.106;11.618;2022-07-12T16:09:49;0.70;;;0.60;;
27367;SDS011;14839;48.106;11.618;2022-07-12T16:12:15;0.40;;;0.40;;
27367;SDS011;14839;48.106;11.618;2022-07-12T16:14:40;0.73;;;0.52;;
27367;SDS011;14839;48.106;11.618;2022-07-12T16:17:08;0.90;;;0.60;;
27367;SDS011;14839;48.106;11.618;2022-07-12T16:19:34;0.35;;;0.35;;
27367;SDS011;14839;48.106;11.618;2022-07-12T16:21:59;1.10;;;0.52;;
27367;SDS011;14839;48.106;11.618;2022-07-12T16:24:25;0.85;;;0.40;;
27367;SDS011;14839;48.106;11.618;2022-07-12T16:26:51;0.50;;;0.40;;
27367;SDS011;14839;48.106;11.618;2022-07-12T16:29:18;0.47;;;0.32;;
27367;SDS011;14839;48.106;11.618;2022-07-12T16:31:44;0.50;;;0.50;;
27367;SDS011;14839;48.106;11.618;2022-07-12T16:34:09;0.32;;;0.30;;
27367;SDS011;14839;48.106;11.618;2022-07-12T16:36:35;0.40;;;0.40;;
27367;SDS011;14839;48.106;11.618;2022-07-12T16:39:01;0.50;;;0.40;;
27367;SDS011;14839;48.106;11.618;2022-07-12T16:41:26;0.70;;;0.50;;
27367;SDS011;14839;48.106;11.618;2022-07-12T16:43:52;0.55;;;0.43;;
27367;SDS011;14839;48.106;11.618;2022-07-12T16:46:19;0.50;;;0.50;;
27367;SDS011;14839;48.106;11.618;2022-07-12T16:48:45;0.63;;;0.45;;
27367;SDS011;14839;48.106;11.618;2022-07-12T16:51:11;3.10;;;0.50;;
27367;SDS011;14839;48.106;11.618;2022-07-12T16:53:49;1.00;;;0.50;;
27367;SDS011;14839;48.106;11.618;2022-07-12T16:56:18;1.27;;;0.50;;
27367;SDS011;14839;48.106;11.618;2022-07-12T16:58:44;0.50;;;0.50;;
27367;SDS011;14839;48.106;11.618;2022-07-12T17:01:10;0.50;;;0.50;;
27367;SDS011;14839;48.106;11.618;2022-07-12T17:03:36;0.60;;;0.60;;
27367;SDS011;14839;48.106;11.618;2022-07-12T17:06:02;1.38;;;0.40;;
27367;SDS011;14839;48.106;11.618;2022-07-12T17:08:27;0.57;;;0.45;;
27367;SDS011;14839;48.106;11.618;2022-07-12T17:10:54;1.58;;;0.50;;
27367;SDS011;14839;48.106;11.618;2022-07-12T17:13:21;1.65;;;0.50;;
27367;SDS011;14839;48.106;11.618;2022-07-12T17:15:47;0.50;;;0.43;;
27367;SDS011;14839;48.106;11.618;2022-07-12T17:18:13;0.70;;;0.60;;
27367;SDS011;14839;48.106;11.618;2022-07-12T17:20:39;0.63;;;0.50;;
27367;SDS011;14839;48.106;11.618;2022-07-12T17:23:05;0.30;;;0.30;;
27367;SDS011;14839;48.106;11.618;2022-07-12T17:25:31;0.60;;;0.52;;
27367;SDS011;14839;48.106;11.618;2022-07-12T17:27:57;0.50;;;0.50;;
27367;SDS011;14839;48.106;11.618;2022-07-12T17:30:23;1.27;;;0.55;;
27367;SDS011;14839;48.106;11.618;2022-07-12T17:32:49;1.00;;;0.50;;
27367;SDS011;14839;48.106;11.618;2022-07-12T17:35:14;0.30;;;0.30;;
27367;SDS011;14839;48.106;11.618;2022-07-12T17:37:40;0.50;;;0.40;;
27367;SDS011;14839;48.106;11.618;2022-07-12T17:40:07;0.38;;;0.30;;
27367;SDS011;14839;48.106;11.618;2022-07-12T17:42:35;0.38;;;0.38;;
27367;SDS011;14839;48.106;11.618;2022-07-12T17:45:00;0.93;;;0.30;;
27367;SDS011;14839;48.106;11.618;2022-07-12T17:47:26;0.50;;;0.50;;
27367;SDS011;14839;48.106;11.618;2022-07-12T17:49:51;0.40;;;0.40;;
27367;SDS011;14839;48.106;11.618;2022-07-12T17:52:17;0.40;;;0.32;;
27367;SDS011;14839;48.106;11.618;2022-07-12T17:54:43;0.82;;;0.45;;
27367;SDS011;14839;48.106;11.618;2022-07-12T17:57:08;0.60;;;0.50;;
27367;SDS011;14839;48.106;11.618;2022-07-12T17:59:34;0.85;;;0.70;;
27367;SDS011;14839;48.106;11.618;2022-07-12T18:01:59;2.53;;;0.50;;
27367;SDS011;14839;48.106;11.618;2022-07-12T18:04:25;0.95;;;0.60;;
27367;SDS011;14839;48.106;11.618;2022-07-12T18:06:50;0.47;;;0.40;;
27367;SDS011;14839;48.106;11.618;2022-07-12T18:09:16;0.60;;;0.50;;
27367;SDS011;14839;48.106;11.618;2022-07-12T18:11:41;0.57;;;0.50;;
27367;SDS011;14839;48.106;11.618;2022-07-12T18:14:26;0.43;;;0.43;;
27367;SDS011;14839;48.106;11.618;2022-07-12T18:17:12;0.70;;;0.50;;
27367;SDS011;14839;48.106;11.618;2022-07-12T18:19:57;0.57;;;0.50;;
27367;SDS011;14839;48.106;11.618;2022-07-12T18:22:23;1.10;;;0.47;;
27367;SDS011;14839;48.106;11.618;2022-07-12T18:24:50;1.75;;;0.60;;
27367;SDS011;14839;48.106;11.618;2022-07-12T18:27:16;0.40;;;0.40;;
27367;SDS011;14839;48.106;11.618;2022-07-12T18:29:42;0.70;;;0.50;;
27367;SDS011;14839;48.106;11.618;2022-07-12T18:32:07;0.60;;;0.47;;
27367;SDS011;14839;48.106;11.618;2022-07-12T18:34:33;0.40;;;0.40;;
27367;SDS011;14839;48.106;11.618;2022-07-12T18:36:59;0.73;;;0.40;;
27367;SDS011;14839;48.106;11.618;2022-07-12T18:39:24;0.55;;;0.45;;
27367;SDS011;14839;48.106;11.618;2022-07-12T18:41:50;0.63;;;0.50;;
27367;SDS011;14839;48.106;11.618;2022-07-12T18:44:16;1.27;;;0.52;;
27367;SDS011;14839;48.106;11.618;2022-07-12T18:46:42;0.80;;;0.50;;
27367;SDS011;14839;48.106;11.618;2022-07-12T18:49:09;0.60;;;0.60;;
27367;SDS011;14839;48.106;11.618;2022-07-12T18:51:35;0.70;;;0.43;;
27367;SDS011;14839;48.106;11.618;2022-07-12T18:54:01;0.30;;;0.30;;
27367;SDS011;14839;48.106;11.618;2022-07-12T18:56:27;4.30;;;0.70;;